sensor_id;sensor_type;location;lat;lon;timestamp;P1;durP1;ratioP1;P2;durP2;ratioP2
59649;SDS011;46162;57.568;25.814;2022-10-16T00:01:46;31.27;;;15.68;;
59649;SDS011;46162;57.568;25.814;2022-10-16T00:04:15;21.58;;;14.15;;
59649;SDS011;46162;57.568;25.814;2022-10-16T00:06:44;25.20;;;14.00;;
59649;SDS011;46162;57.568;25.814;2022-10-16T00:09:14;23.52;;;13.60;;
59649;SDS011;46162;57.568;25.814;2022-10-16T00:11:43;23.07;;;14.37;;
59649;SDS011;46162;57.568;25.814;2022-10-16T00:14:12;24.42;;;14.23;;
59649;SDS011;46162;57.568;25.814;2022-10-16T00:16:42;27.23;;;14.52;;
59649;SDS011;46162;57.568;25.814;2022-10-16T00:19:11;25.95;;;14.45;;
59649;SDS011;46162;57.568;25.814;2022-10-16T00:21:40;28.75;;;15.27;;
59649;SDS011;46162;57.568;25.814;2022-10-16T00:24:09;27.15;;;15.25;;
59649;SDS011;46162;57.568;25.814;2022-10-16T00:26:39;25.75;;;15.23;;
59649;SDS011;46162;57.568;25.814;2022-10-16T00:31:37;24.25;;;14.73;;
59649;SDS011;46162;57.568;25.814;2022-10-16T00:34:06;24.67;;;14.85;;
59649;SDS011;46162;57.568;25.814;2022-10-16T00:36:35;29.45;;;15.75;;
59649;SDS011;46162;57.568;25.814;2022-10-16T00:39:03;26.83;;;14.55;;
59649;SDS011;46162;57.568;25.814;2022-10-16T00:41:32;24.90;;;14.18;;
59649;SDS011;46162;57.568;25.814;2022-10-16T00:44:03;22.67;;;14.63;;
59649;SDS011;46162;57.568;25.814;2022-10-16T00:46:53;23.25;;;14.15;;
59649;SDS011;46162;57.568;25.814;2022-10-16T00:49:22;20.90;;;15.45;;
59649;SDS011;46162;57.568;25.814;2022-10-16T00:51:51;28.77;;;15.57;;
59649;SDS011;46162;57.568;25.814;2022-10-16T00:54:23;25.00;;;15.90;;
59649;SDS011;46162;57.568;25.814;2022-10-16T00:56:54;26.60;;;15.90;;
59649;SDS011;46162;57.568;25.814;2022-10-16T00:59:26;24.80;;;15.18;;
59649;SDS011;46162;57.568;25.814;2022-10-16T01:01:56;24.63;;;15.05;;
59649;SDS011;46162;57.568;25.814;2022-10-16T01:04:26;26.88;;;15.77;;
59649;SDS011;46162;57.568;25.814;2022-10-16T01:07:02;25.52;;;16.17;;
59649;SDS011;46162;57.568;25.814;2022-10-16T01:09:40;24.90;;;14.70;;
59649;SDS011;46162;57.568;25.814;2022-10-16T01:12:23;26.88;;;15.25;;
59649;SDS011;46162;57.568;25.814;2022-10-16T01:15:08;23.77;;;14.77;;
59649;SDS011;46162;57.568;25.814;2022-10-16T01:17:42;27.02;;;14.85;;
59649;SDS011;46162;57.568;25.814;2022-10-16T01:20:15;25.80;;;15.15;;
59649;SDS011;46162;57.568;25.814;2022-10-16T01:22:58;26.70;;;15.98;;
59649;SDS011;46162;57.568;25.814;2022-10-16T01:25:52;27.45;;;15.13;;
59649;SDS011;46162;57.568;25.814;2022-10-16T01:28:38;24.88;;;15.23;;
59649;SDS011;46162;57.568;25.814;2022-10-16T01:31:13;29.95;;;14.93;;
59649;SDS011;46162;57.568;25.814;2022-10-16T01:33:45;28.23;;;15.65;;
59649;SDS011;46162;57.568;25.814;2022-10-16T01:36:25;27.73;;;15.05;;
59649;SDS011;46162;57.568;25.814;2022-10-16T01:38:57;22.80;;;14.50;;
59649;SDS011;46162;57.568;25.814;2022-10-16T01:41:30;29.23;;;16.13;;
59649;SDS011;46162;57.568;25.814;2022-10-16T01:44:04;26.27;;;15.85;;
59649;SDS011;46162;57.568;25.814;2022-10-16T01:46:37;27.23;;;16.42;;
59649;SDS011;46162;57.568;25.814;2022-10-16T01:49:07;26.02;;;15.23;;
59649;SDS011;46162;57.568;25.814;2022-10-16T01:51:38;23.25;;;15.48;;
59649;SDS011;46162;57.568;25.814;2022-10-16T01:54:08;25.02;;;15.77;;
59649;SDS011;46162;57.568;25.814;2022-10-16T01:56:37;26.85;;;16.45;;
59649;SDS011;46162;57.568;25.814;2022-10-16T01:59:11;25.48;;;15.82;;
59649;SDS011;46162;57.568;25.814;2022-10-16T02:01:44;24.63;;;14.85;;
59649;SDS011;46162;57.568;25.814;2022-10-16T02:04:18;24.52;;;14.73;;
59649;SDS011;46162;57.568;25.814;2022-10-16T02:06:52;23.08;;;15.40;;
59649;SDS011;46162;57.568;25.814;2022-10-16T02:09:21;30.70;;;16.35;;
59649;SDS011;46162;57.568;25.814;2022-10-16T02:11:50;25.30;;;16.05;;
59649;SDS011;46162;57.568;25.814;2022-10-16T02:14:24;27.48;;;16.60;;
59649;SDS011;46162;57.568;25.814;2022-10-16T02:16:54;24.63;;;15.73;;
59649;SDS011;46162;57.568;25.814;2022-10-16T02:19:23;26.52;;;15.52;;
59649;SDS011;46162;57.568;25.814;2022-10-16T02:21:53;29.13;;;16.30;;
59649;SDS011;46162;57.568;25.814;2022-10-16T02:24:26;25.70;;;15.43;;
59649;SDS011;46162;57.568;25.814;2022-10-16T02:27:02;23.80;;;15.23;;
59649;SDS011;46162;57.568;25.814;2022-10-16T02:29:37;22.25;;;14.70;;
59649;SDS011;46162;57.568;25.814;2022-10-16T02:32:11;29.80;;;15.05;;
59649;SDS011;46162;57.568;25.814;2022-10-16T02:34:43;24.02;;;15.10;;
59649;SDS011;46162;57.568;25.814;2022-10-16T02:37:13;23.88;;;14.88;;
59649;SDS011;46162;57.568;25.814;2022-10-16T02:39:43;25.98;;;16.25;;
59649;SDS011;46162;57.568;25.814;2022-10-16T02:42:12;28.20;;;15.32;;
59649;SDS011;46162;57.568;25.814;2022-10-16T02:44:43;26.15;;;15.70;;
59649;SDS011;46162;57.568;25.814;2022-10-16T02:47:12;22.17;;;14.93;;
59649;SDS011;46162;57.568;25.814;2022-10-16T02:49:41;25.13;;;15.32;;
59649;SDS011;46162;57.568;25.814;2022-10-16T02:52:09;29.80;;;16.08;;
59649;SDS011;46162;57.568;25.814;2022-10-16T02:54:38;29.05;;;15.38;;
59649;SDS011;46162;57.568;25.814;2022-10-16T02:57:07;27.90;;;16.02;;
59649;SDS011;46162;57.568;25.814;2022-10-16T02:59:35;27.02;;;15.77;;
59649;SDS011;46162;57.568;25.814;2022-10-16T03:02:05;25.65;;;16.45;;
59649;SDS011;46162;57.568;25.814;2022-10-16T03:04:34;30.85;;;16.02;;
59649;SDS011;46162;57.568;25.814;2022-10-16T03:07:03;26.48;;;16.55;;
59649;SDS011;46162;57.568;25.814;2022-10-16T03:09:32;27.95;;;16.00;;
59649;SDS011;46162;57.568;25.814;2022-10-16T03:12:01;28.25;;;15.45;;
59649;SDS011;46162;57.568;25.814;2022-10-16T03:14:29;24.83;;;15.57;;
59649;SDS011;46162;57.568;25.814;2022-10-16T03:16:58;27.77;;;16.52;;
59649;SDS011;46162;57.568;25.814;2022-10-16T03:19:28;25.65;;;16.55;;
59649;SDS011;46162;57.568;25.814;2022-10-16T03:21:57;24.77;;;16.20;;
59649;SDS011;46162;57.568;25.814;2022-10-16T03:24:25;27.98;;;16.17;;
59649;SDS011;46162;57.568;25.814;2022-10-16T03:26:54;26.70;;;16.27;;
59649;SDS011;46162;57.568;25.814;2022-10-16T03:29:23;27.40;;;16.33;;
59649;SDS011;46162;57.568;25.814;2022-10-16T03:31:52;23.92;;;15.98;;
59649;SDS011;46162;57.568;25.814;2022-10-16T03:34:21;25.42;;;15.43;;
59649;SDS011;46162;57.568;25.814;2022-10-16T03:36:51;27.38;;;16.52;;
59649;SDS011;46162;57.568;25.814;2022-10-16T03:39:20;30.52;;;16.58;;
59649;SDS011;46162;57.568;25.814;2022-10-16T03:41:49;28.20;;;17.02;;
59649;SDS011;46162;57.568;25.814;2022-10-16T03:44:17;29.15;;;17.05;;
59649;SDS011;46162;57.568;25.814;2022-10-16T03:46:46;34.20;;;17.02;;
59649;SDS011;46162;57.568;25.814;2022-10-16T03:49:15;27.00;;;17.08;;
59649;SDS011;46162;57.568;25.814;2022-10-16T03:51:43;23.27;;;15.77;;
59649;SDS011;46162;57.568;25.814;2022-10-16T03:54:14;29.48;;;16.40;;
59649;SDS011;46162;57.568;25.814;2022-10-16T03:56:42;23.88;;;15.75;;
59649;SDS011;46162;57.568;25.814;2022-10-16T03:59:11;27.20;;;15.30;;
59649;SDS011;46162;57.568;25.814;2022-10-16T04:01:40;27.38;;;16.95;;
59649;SDS011;46162;57.568;25.814;2022-10-16T04:04:08;24.95;;;15.98;;
59649;SDS011;46162;57.568;25.814;2022-10-16T04:06:37;30.05;;;17.23;;
59649;SDS011;46162;57.568;25.814;2022-10-16T04:09:06;27.02;;;16.55;;
59649;SDS011;46162;57.568;25.814;2022-10-16T04:11:36;29.40;;;16.83;;
59649;SDS011;46162;57.568;25.814;2022-10-16T04:14:05;25.33;;;16.83;;
59649;SDS011;46162;57.568;25.814;2022-10-16T04:16:34;28.80;;;17.92;;
59649;SDS011;46162;57.568;25.814;2022-10-16T04:19:02;25.50;;;16.13;;
59649;SDS011;46162;57.568;25.814;2022-10-16T04:21:31;29.92;;;17.77;;
59649;SDS011;46162;57.568;25.814;2022-10-16T04:24:00;30.00;;;17.90;;
59649;SDS011;46162;57.568;25.814;2022-10-16T04:26:29;29.63;;;18.27;;
59649;SDS011;46162;57.568;25.814;2022-10-16T04:28:59;29.58;;;18.55;;
59649;SDS011;46162;57.568;25.814;2022-10-16T04:31:28;28.53;;;19.13;;
59649;SDS011;46162;57.568;25.814;2022-10-16T04:33:56;36.70;;;18.42;;
59649;SDS011;46162;57.568;25.814;2022-10-16T04:36:25;30.38;;;19.25;;
59649;SDS011;46162;57.568;25.814;2022-10-16T04:38:55;32.80;;;18.98;;
59649;SDS011;46162;57.568;25.814;2022-10-16T04:41:23;29.95;;;19.48;;
59649;SDS011;46162;57.568;25.814;2022-10-16T04:43:52;35.85;;;18.60;;
59649;SDS011;46162;57.568;25.814;2022-10-16T04:46:22;34.92;;;19.85;;
59649;SDS011;46162;57.568;25.814;2022-10-16T04:48:51;32.13;;;19.85;;
59649;SDS011;46162;57.568;25.814;2022-10-16T04:51:20;37.22;;;18.80;;
59649;SDS011;46162;57.568;25.814;2022-10-16T04:53:49;35.55;;;20.50;;
59649;SDS011;46162;57.568;25.814;2022-10-16T04:56:17;35.00;;;20.80;;
59649;SDS011;46162;57.568;25.814;2022-10-16T04:58:47;33.95;;;20.23;;
59649;SDS011;46162;57.568;25.814;2022-10-16T05:01:16;40.47;;;21.92;;
59649;SDS011;46162;57.568;25.814;2022-10-16T05:03:46;35.53;;;21.48;;
59649;SDS011;46162;57.568;25.814;2022-10-16T05:06:15;35.83;;;19.47;;
59649;SDS011;46162;57.568;25.814;2022-10-16T05:08:43;35.53;;;20.98;;
59649;SDS011;46162;57.568;25.814;2022-10-16T05:11:12;33.92;;;20.50;;
59649;SDS011;46162;57.568;25.814;2022-10-16T05:13:41;30.42;;;19.92;;
59649;SDS011;46162;57.568;25.814;2022-10-16T05:16:10;30.33;;;18.73;;
59649;SDS011;46162;57.568;25.814;2022-10-16T05:18:38;34.63;;;19.55;;
59649;SDS011;46162;57.568;25.814;2022-10-16T05:21:08;37.38;;;19.45;;
59649;SDS011;46162;57.568;25.814;2022-10-16T05:23:37;35.95;;;20.27;;
59649;SDS011;46162;57.568;25.814;2022-10-16T05:26:07;31.35;;;18.63;;
59649;SDS011;46162;57.568;25.814;2022-10-16T05:28:36;30.35;;;19.13;;
59649;SDS011;46162;57.568;25.814;2022-10-16T05:31:05;28.70;;;18.45;;
59649;SDS011;46162;57.568;25.814;2022-10-16T05:33:35;28.23;;;18.17;;
59649;SDS011;46162;57.568;25.814;2022-10-16T05:36:04;28.45;;;18.48;;
59649;SDS011;46162;57.568;25.814;2022-10-16T05:38:35;28.53;;;18.60;;
59649;SDS011;46162;57.568;25.814;2022-10-16T05:43:33;29.80;;;17.63;;
59649;SDS011;46162;57.568;25.814;2022-10-16T05:46:03;26.55;;;17.30;;
59649;SDS011;46162;57.568;25.814;2022-10-16T05:51:02;25.88;;;17.23;;
59649;SDS011;46162;57.568;25.814;2022-10-16T05:53:33;28.48;;;17.35;;
59649;SDS011;46162;57.568;25.814;2022-10-16T05:56:06;25.27;;;17.35;;
59649;SDS011;46162;57.568;25.814;2022-10-16T05:58:37;27.15;;;17.27;;
59649;SDS011;46162;57.568;25.814;2022-10-16T06:01:09;24.55;;;16.38;;
59649;SDS011;46162;57.568;25.814;2022-10-16T06:03:38;26.42;;;18.20;;
59649;SDS011;46162;57.568;25.814;2022-10-16T06:06:08;25.58;;;16.60;;
59649;SDS011;46162;57.568;25.814;2022-10-16T06:08:40;32.08;;;18.90;;
59649;SDS011;46162;57.568;25.814;2022-10-16T06:11:10;23.92;;;17.55;;
59649;SDS011;46162;57.568;25.814;2022-10-16T06:16:09;28.13;;;17.80;;
59649;SDS011;46162;57.568;25.814;2022-10-16T06:18:38;26.42;;;18.10;;
59649;SDS011;46162;57.568;25.814;2022-10-16T06:21:07;32.75;;;20.45;;
59649;SDS011;46162;57.568;25.814;2022-10-16T06:23:37;34.10;;;19.58;;
59649;SDS011;46162;57.568;25.814;2022-10-16T06:26:08;30.60;;;19.52;;
59649;SDS011;46162;57.568;25.814;2022-10-16T06:28:38;31.42;;;20.58;;
59649;SDS011;46162;57.568;25.814;2022-10-16T06:31:08;32.92;;;20.20;;
59649;SDS011;46162;57.568;25.814;2022-10-16T06:33:38;31.33;;;20.92;;
59649;SDS011;46162;57.568;25.814;2022-10-16T06:36:08;35.40;;;20.88;;
59649;SDS011;46162;57.568;25.814;2022-10-16T06:38:38;32.10;;;21.27;;
59649;SDS011;46162;57.568;25.814;2022-10-16T06:41:09;28.52;;;18.70;;
59649;SDS011;46162;57.568;25.814;2022-10-16T06:43:39;31.75;;;19.95;;
59649;SDS011;46162;57.568;25.814;2022-10-16T06:46:09;33.95;;;20.55;;
59649;SDS011;46162;57.568;25.814;2022-10-16T06:48:39;33.33;;;20.38;;
59649;SDS011;46162;57.568;25.814;2022-10-16T06:51:09;36.38;;;23.40;;
59649;SDS011;46162;57.568;25.814;2022-10-16T06:53:39;41.58;;;22.55;;
59649;SDS011;46162;57.568;25.814;2022-10-16T06:56:30;43.88;;;24.27;;
59649;SDS011;46162;57.568;25.814;2022-10-16T06:59:00;39.75;;;23.58;;
59649;SDS011;46162;57.568;25.814;2022-10-16T07:01:29;36.65;;;22.83;;
59649;SDS011;46162;57.568;25.814;2022-10-16T07:03:59;44.15;;;24.60;;
59649;SDS011;46162;57.568;25.814;2022-10-16T07:06:30;37.20;;;23.10;;
59649;SDS011;46162;57.568;25.814;2022-10-16T07:11:30;44.85;;;26.55;;
59649;SDS011;46162;57.568;25.814;2022-10-16T07:13:59;48.27;;;27.67;;
59649;SDS011;46162;57.568;25.814;2022-10-16T07:16:29;51.03;;;28.05;;
59649;SDS011;46162;57.568;25.814;2022-10-16T07:18:59;44.70;;;26.95;;
59649;SDS011;46162;57.568;25.814;2022-10-16T07:21:30;40.03;;;26.15;;
59649;SDS011;46162;57.568;25.814;2022-10-16T07:24:03;44.17;;;26.70;;
59649;SDS011;46162;57.568;25.814;2022-10-16T07:26:35;48.08;;;28.13;;
59649;SDS011;46162;57.568;25.814;2022-10-16T07:29:06;50.00;;;27.38;;
59649;SDS011;46162;57.568;25.814;2022-10-16T07:31:40;46.45;;;27.48;;
59649;SDS011;46162;57.568;25.814;2022-10-16T07:34:09;42.05;;;26.70;;
59649;SDS011;46162;57.568;25.814;2022-10-16T07:36:39;44.25;;;26.80;;
59649;SDS011;46162;57.568;25.814;2022-10-16T07:39:13;43.28;;;25.80;;
59649;SDS011;46162;57.568;25.814;2022-10-16T07:41:43;43.15;;;25.83;;
59649;SDS011;46162;57.568;25.814;2022-10-16T07:44:12;47.63;;;26.15;;
59649;SDS011;46162;57.568;25.814;2022-10-16T07:46:40;47.40;;;26.67;;
59649;SDS011;46162;57.568;25.814;2022-10-16T07:49:09;45.45;;;27.27;;
59649;SDS011;46162;57.568;25.814;2022-10-16T07:51:38;51.17;;;29.73;;
59649;SDS011;46162;57.568;25.814;2022-10-16T07:54:07;47.60;;;27.65;;
59649;SDS011;46162;57.568;25.814;2022-10-16T07:56:36;48.92;;;29.35;;
59649;SDS011;46162;57.568;25.814;2022-10-16T07:59:11;50.15;;;29.48;;
59649;SDS011;46162;57.568;25.814;2022-10-16T08:01:40;53.53;;;29.13;;
59649;SDS011;46162;57.568;25.814;2022-10-16T08:04:10;52.95;;;30.45;;
59649;SDS011;46162;57.568;25.814;2022-10-16T08:06:39;61.67;;;32.95;;
59649;SDS011;46162;57.568;25.814;2022-10-16T08:09:08;54.10;;;31.35;;
59649;SDS011;46162;57.568;25.814;2022-10-16T08:11:37;54.42;;;32.13;;
59649;SDS011;46162;57.568;25.814;2022-10-16T08:14:06;59.25;;;32.58;;
59649;SDS011;46162;57.568;25.814;2022-10-16T08:16:36;58.50;;;31.60;;
59649;SDS011;46162;57.568;25.814;2022-10-16T08:19:05;56.77;;;33.80;;
59649;SDS011;46162;57.568;25.814;2022-10-16T08:21:33;54.95;;;32.70;;
59649;SDS011;46162;57.568;25.814;2022-10-16T08:24:02;57.65;;;33.03;;
59649;SDS011;46162;57.568;25.814;2022-10-16T08:26:31;57.35;;;32.47;;
59649;SDS011;46162;57.568;25.814;2022-10-16T08:28:59;58.33;;;33.03;;
59649;SDS011;46162;57.568;25.814;2022-10-16T08:31:28;53.85;;;32.85;;
59649;SDS011;46162;57.568;25.814;2022-10-16T08:33:58;64.30;;;34.58;;
59649;SDS011;46162;57.568;25.814;2022-10-16T08:38:56;58.72;;;36.05;;
59649;SDS011;46162;57.568;25.814;2022-10-16T08:44:58;63.10;;;36.45;;
59649;SDS011;46162;57.568;25.814;2022-10-16T08:47:55;68.78;;;37.60;;
59649;SDS011;46162;57.568;25.814;2022-10-16T08:50:36;68.68;;;39.72;;
59649;SDS011;46162;57.568;25.814;2022-10-16T08:53:06;68.68;;;39.70;;
59649;SDS011;46162;57.568;25.814;2022-10-16T08:55:41;68.53;;;40.63;;
59649;SDS011;46162;57.568;25.814;2022-10-16T08:58:12;64.65;;;39.80;;
59649;SDS011;46162;57.568;25.814;2022-10-16T09:00:44;71.60;;;40.78;;
59649;SDS011;46162;57.568;25.814;2022-10-16T09:03:22;69.90;;;40.28;;
59649;SDS011;46162;57.568;25.814;2022-10-16T09:06:06;70.07;;;42.20;;
59649;SDS011;46162;57.568;25.814;2022-10-16T09:08:45;68.10;;;40.25;;
59649;SDS011;46162;57.568;25.814;2022-10-16T09:11:20;71.07;;;41.53;;
59649;SDS011;46162;57.568;25.814;2022-10-16T09:14:01;71.78;;;43.65;;
59649;SDS011;46162;57.568;25.814;2022-10-16T09:16:41;71.32;;;43.10;;
59649;SDS011;46162;57.568;25.814;2022-10-16T09:19:13;71.82;;;43.38;;
59649;SDS011;46162;57.568;25.814;2022-10-16T09:21:50;74.70;;;43.38;;
59649;SDS011;46162;57.568;25.814;2022-10-16T09:26:54;71.88;;;44.15;;
59649;SDS011;46162;57.568;25.814;2022-10-16T09:29:23;74.00;;;45.55;;
59649;SDS011;46162;57.568;25.814;2022-10-16T09:31:52;73.40;;;45.05;;
59649;SDS011;46162;57.568;25.814;2022-10-16T09:34:24;76.20;;;45.08;;
59649;SDS011;46162;57.568;25.814;2022-10-16T09:37:00;70.70;;;45.40;;
59649;SDS011;46162;57.568;25.814;2022-10-16T09:39:43;79.63;;;45.95;;
59649;SDS011;46162;57.568;25.814;2022-10-16T09:42:14;71.10;;;44.63;;
59649;SDS011;46162;57.568;25.814;2022-10-16T09:44:47;72.85;;;44.33;;
59649;SDS011;46162;57.568;25.814;2022-10-16T09:47:18;78.18;;;44.97;;
59649;SDS011;46162;57.568;25.814;2022-10-16T09:49:52;76.05;;;45.33;;
59649;SDS011;46162;57.568;25.814;2022-10-16T09:52:23;67.15;;;43.10;;
59649;SDS011;46162;57.568;25.814;2022-10-16T09:54:53;80.75;;;44.90;;
59649;SDS011;46162;57.568;25.814;2022-10-16T09:57:24;68.03;;;44.72;;
59649;SDS011;46162;57.568;25.814;2022-10-16T09:59:54;71.30;;;44.17;;
59649;SDS011;46162;57.568;25.814;2022-10-16T10:02:27;73.22;;;43.78;;
59649;SDS011;46162;57.568;25.814;2022-10-16T10:04:58;68.38;;;42.97;;
59649;SDS011;46162;57.568;25.814;2022-10-16T10:07:30;72.30;;;43.63;;
59649;SDS011;46162;57.568;25.814;2022-10-16T10:10:02;70.93;;;44.95;;
59649;SDS011;46162;57.568;25.814;2022-10-16T10:12:33;72.05;;;44.10;;
59649;SDS011;46162;57.568;25.814;2022-10-16T10:15:04;70.03;;;42.92;;
59649;SDS011;46162;57.568;25.814;2022-10-16T10:17:44;68.82;;;44.63;;
59649;SDS011;46162;57.568;25.814;2022-10-16T10:20:18;75.68;;;44.63;;
59649;SDS011;46162;57.568;25.814;2022-10-16T10:22:53;72.93;;;45.08;;
59649;SDS011;46162;57.568;25.814;2022-10-16T10:25:28;76.72;;;45.90;;
59649;SDS011;46162;57.568;25.814;2022-10-16T10:28:22;74.43;;;45.75;;
59649;SDS011;46162;57.568;25.814;2022-10-16T10:31:03;76.57;;;45.80;;
59649;SDS011;46162;57.568;25.814;2022-10-16T10:33:38;76.57;;;46.17;;
59649;SDS011;46162;57.568;25.814;2022-10-16T10:36:16;66.80;;;44.42;;
59649;SDS011;46162;57.568;25.814;2022-10-16T10:41:32;73.70;;;42.92;;
59649;SDS011;46162;57.568;25.814;2022-10-16T10:44:21;65.15;;;42.20;;
59649;SDS011;46162;57.568;25.814;2022-10-16T10:47:04;69.20;;;43.85;;
59649;SDS011;46162;57.568;25.814;2022-10-16T10:49:45;60.22;;;40.72;;
59649;SDS011;46162;57.568;25.814;2022-10-16T10:52:31;68.53;;;43.05;;
59649;SDS011;46162;57.568;25.814;2022-10-16T10:55:16;76.53;;;45.33;;
59649;SDS011;46162;57.568;25.814;2022-10-16T10:57:54;72.93;;;43.27;;
59649;SDS011;46162;57.568;25.814;2022-10-16T11:00:40;72.70;;;45.28;;
59649;SDS011;46162;57.568;25.814;2022-10-16T11:06:14;68.70;;;44.35;;
59649;SDS011;46162;57.568;25.814;2022-10-16T11:08:51;71.68;;;44.47;;
59649;SDS011;46162;57.568;25.814;2022-10-16T11:11:29;69.90;;;42.58;;
59649;SDS011;46162;57.568;25.814;2022-10-16T11:14:03;69.00;;;41.80;;
59649;SDS011;46162;57.568;25.814;2022-10-16T11:16:35;69.55;;;43.78;;
59649;SDS011;46162;57.568;25.814;2022-10-16T11:19:10;59.60;;;39.92;;
59649;SDS011;46162;57.568;25.814;2022-10-16T11:21:44;65.70;;;42.33;;
59649;SDS011;46162;57.568;25.814;2022-10-16T11:24:18;63.28;;;41.00;;
59649;SDS011;46162;57.568;25.814;2022-10-16T11:26:53;61.95;;;41.03;;
59649;SDS011;46162;57.568;25.814;2022-10-16T11:29:24;65.40;;;41.03;;
59649;SDS011;46162;57.568;25.814;2022-10-16T11:31:58;65.85;;;43.08;;
59649;SDS011;46162;57.568;25.814;2022-10-16T11:34:34;69.72;;;42.85;;
59649;SDS011;46162;57.568;25.814;2022-10-16T11:37:10;61.00;;;40.33;;
59649;SDS011;46162;57.568;25.814;2022-10-16T11:39:42;62.85;;;40.53;;
59649;SDS011;46162;57.568;25.814;2022-10-16T11:42:16;64.50;;;40.47;;
59649;SDS011;46162;57.568;25.814;2022-10-16T11:44:51;64.68;;;40.72;;
59649;SDS011;46162;57.568;25.814;2022-10-16T11:47:27;61.83;;;38.53;;
59649;SDS011;46162;57.568;25.814;2022-10-16T11:50:23;62.58;;;41.03;;
59649;SDS011;46162;57.568;25.814;2022-10-16T11:52:56;67.07;;;41.22;;
59649;SDS011;46162;57.568;25.814;2022-10-16T11:55:30;72.13;;;41.35;;
59649;SDS011;46162;57.568;25.814;2022-10-16T11:58:13;66.95;;;41.42;;
59649;SDS011;46162;57.568;25.814;2022-10-16T12:00:56;64.65;;;40.42;;
59649;SDS011;46162;57.568;25.814;2022-10-16T12:03:30;61.92;;;39.45;;
59649;SDS011;46162;57.568;25.814;2022-10-16T12:06:07;64.47;;;40.78;;
59649;SDS011;46162;57.568;25.814;2022-10-16T12:08:44;64.78;;;39.08;;
59649;SDS011;46162;57.568;25.814;2022-10-16T12:11:23;60.38;;;40.13;;
59649;SDS011;46162;57.568;25.814;2022-10-16T12:14:17;66.55;;;39.42;;
59649;SDS011;46162;57.568;25.814;2022-10-16T12:16:52;68.60;;;40.08;;
59649;SDS011;46162;57.568;25.814;2022-10-16T12:19:22;60.78;;;39.90;;
59649;SDS011;46162;57.568;25.814;2022-10-16T12:21:52;60.22;;;38.92;;
59649;SDS011;46162;57.568;25.814;2022-10-16T12:24:34;59.92;;;38.05;;
59649;SDS011;46162;57.568;25.814;2022-10-16T12:27:05;64.43;;;39.33;;
59649;SDS011;46162;57.568;25.814;2022-10-16T12:29:47;57.47;;;37.33;;
59649;SDS011;46162;57.568;25.814;2022-10-16T12:32:27;59.78;;;38.42;;
59649;SDS011;46162;57.568;25.814;2022-10-16T12:35:18;61.25;;;37.03;;
59649;SDS011;46162;57.568;25.814;2022-10-16T12:37:48;58.72;;;36.70;;
59649;SDS011;46162;57.568;25.814;2022-10-16T12:40:24;61.08;;;37.13;;
59649;SDS011;46162;57.568;25.814;2022-10-16T12:42:55;55.78;;;35.25;;
59649;SDS011;46162;57.568;25.814;2022-10-16T12:45:29;54.47;;;35.67;;
59649;SDS011;46162;57.568;25.814;2022-10-16T12:48:00;54.40;;;36.13;;
59649;SDS011;46162;57.568;25.814;2022-10-16T12:50:32;58.72;;;35.65;;
59649;SDS011;46162;57.568;25.814;2022-10-16T12:53:03;57.15;;;36.00;;
59649;SDS011;46162;57.568;25.814;2022-10-16T12:55:47;56.80;;;36.83;;
59649;SDS011;46162;57.568;25.814;2022-10-16T13:01:25;57.60;;;35.80;;
59649;SDS011;46162;57.568;25.814;2022-10-16T13:04:08;58.40;;;35.28;;
59649;SDS011;46162;57.568;25.814;2022-10-16T13:06:48;58.88;;;36.72;;
59649;SDS011;46162;57.568;25.814;2022-10-16T13:09:28;57.80;;;36.33;;
59649;SDS011;46162;57.568;25.814;2022-10-16T13:12:19;58.20;;;36.70;;
59649;SDS011;46162;57.568;25.814;2022-10-16T13:15:14;62.55;;;36.67;;
59649;SDS011;46162;57.568;25.814;2022-10-16T13:17:57;59.40;;;36.47;;
59649;SDS011;46162;57.568;25.814;2022-10-16T13:20:33;58.80;;;36.60;;
59649;SDS011;46162;57.568;25.814;2022-10-16T13:23:09;56.85;;;35.13;;
59649;SDS011;46162;57.568;25.814;2022-10-16T13:25:51;57.40;;;36.65;;
59649;SDS011;46162;57.568;25.814;2022-10-16T13:28:32;61.25;;;37.35;;
59649;SDS011;46162;57.568;25.814;2022-10-16T13:31:02;65.82;;;36.65;;
59649;SDS011;46162;57.568;25.814;2022-10-16T13:33:34;58.78;;;37.22;;
59649;SDS011;46162;57.568;25.814;2022-10-16T13:36:05;57.95;;;35.40;;
59649;SDS011;46162;57.568;25.814;2022-10-16T13:38:35;55.83;;;36.55;;
59649;SDS011;46162;57.568;25.814;2022-10-16T13:41:05;58.15;;;37.08;;
59649;SDS011;46162;57.568;25.814;2022-10-16T13:43:42;54.67;;;34.95;;
59649;SDS011;46162;57.568;25.814;2022-10-16T13:46:13;49.20;;;33.13;;
59649;SDS011;46162;57.568;25.814;2022-10-16T13:48:55;51.97;;;34.47;;
59649;SDS011;46162;57.568;25.814;2022-10-16T13:51:25;47.70;;;33.10;;
59649;SDS011;46162;57.568;25.814;2022-10-16T13:53:55;55.10;;;34.53;;
59649;SDS011;46162;57.568;25.814;2022-10-16T13:56:25;48.90;;;32.47;;
59649;SDS011;46162;57.568;25.814;2022-10-16T13:58:58;52.13;;;34.10;;
59649;SDS011;46162;57.568;25.814;2022-10-16T14:01:28;50.30;;;32.05;;
59649;SDS011;46162;57.568;25.814;2022-10-16T14:04:04;45.65;;;30.15;;
59649;SDS011;46162;57.568;25.814;2022-10-16T14:06:35;46.00;;;29.45;;
59649;SDS011;46162;57.568;25.814;2022-10-16T14:09:05;44.75;;;29.38;;
59649;SDS011;46162;57.568;25.814;2022-10-16T14:11:36;44.80;;;28.38;;
59649;SDS011;46162;57.568;25.814;2022-10-16T14:14:14;39.25;;;28.10;;
59649;SDS011;46162;57.568;25.814;2022-10-16T14:16:43;42.00;;;27.40;;
59649;SDS011;46162;57.568;25.814;2022-10-16T14:19:18;41.25;;;26.95;;
59649;SDS011;46162;57.568;25.814;2022-10-16T14:21:50;37.05;;;26.00;;
59649;SDS011;46162;57.568;25.814;2022-10-16T14:24:24;34.83;;;25.15;;
59649;SDS011;46162;57.568;25.814;2022-10-16T14:26:55;40.75;;;26.20;;
59649;SDS011;46162;57.568;25.814;2022-10-16T14:29:24;34.72;;;23.75;;
59649;SDS011;46162;57.568;25.814;2022-10-16T14:31:54;33.17;;;25.02;;
59649;SDS011;46162;57.568;25.814;2022-10-16T14:34:27;35.33;;;24.57;;
59649;SDS011;46162;57.568;25.814;2022-10-16T14:37:00;35.50;;;24.33;;
59649;SDS011;46162;57.568;25.814;2022-10-16T14:39:35;32.08;;;23.08;;
59649;SDS011;46162;57.568;25.814;2022-10-16T14:42:04;33.00;;;22.48;;
59649;SDS011;46162;57.568;25.814;2022-10-16T14:44:32;34.78;;;22.73;;
59649;SDS011;46162;57.568;25.814;2022-10-16T14:47:08;30.08;;;22.08;;
59649;SDS011;46162;57.568;25.814;2022-10-16T14:49:42;30.65;;;22.15;;
59649;SDS011;46162;57.568;25.814;2022-10-16T14:52:11;35.22;;;21.23;;
59649;SDS011;46162;57.568;25.814;2022-10-16T14:54:41;30.83;;;21.20;;
59649;SDS011;46162;57.568;25.814;2022-10-16T14:57:15;30.70;;;21.38;;
59649;SDS011;46162;57.568;25.814;2022-10-16T14:59:46;26.98;;;20.50;;
59649;SDS011;46162;57.568;25.814;2022-10-16T15:02:20;32.20;;;22.10;;
59649;SDS011;46162;57.568;25.814;2022-10-16T15:04:55;30.02;;;22.55;;
59649;SDS011;46162;57.568;25.814;2022-10-16T15:07:24;28.40;;;21.27;;
59649;SDS011;46162;57.568;25.814;2022-10-16T15:09:53;31.63;;;21.63;;